Terminal Aerodrome Forecast
Issued by NWS Flagstaff, AZ

Home | Current Version | Previous Version | Text Only | Print | Product List | Glossary On
Versions: 1 2 3 4 5 6 7 8 9 10 11 12 13 14 15
000
FTUS45 KFGZ 280652 AAA
TAFINW
TAF AMD
KINW 280652Z 2807/2906 VRB06KT P6SM VCSH SCT070 BKN100
     FM282000 16009KT P6SM VCTS SCT070CB BKN090
     FM290300 VRB05KT P6SM BKN100=

USA.gov is the U.S. government's official web portal to all federal, state and local government web resources and services.